Main page
METAR-TAF:

METAR-TAF

Airports :

Sharjah International Airport

Sharjah, United Arab Emirates

latitude: 25-20N, longitude: 055-31E, elevation: 35 m

Current weather observation

The report was made 54 minutes ago, at 22:00 UTC
Wind 6 kt from the Northeast
Temperature 34°C
Humidity 75%
Pressure 994 hPa
Visibility: 7000 m

METAR: OMSJ 052200Z 04006KT 7000 NSC 34/29 Q0994 NOSIG

Time: 02:54 (22:54 UTC)

Forecast

The report was made 5 hours and 54 minutes ago, at 17:00 UTC
Forecast valid from 05 at 18 UTC to 07 at 00 UTC
Wind 7 kt from the East
Visibility 10 km or more
no clouds below 1500 m and no cumulonimbus
Becoming
from 06 at 07 UTC to 06 at 09 UTC
Wind 12 kt from the North/Northwest
Becoming
from 06 at 16 UTC to 06 at 18 UTC
Wind 5 kt from the East/Northeast

TAF: OMSJ 051700Z 0518/0700 08007KT CAVOK BECMG 0607/0609 33012KT BECMG 0616/0618 06005KT

Weather observations and forecasts of more than 4000 airports (METAR and TAF reports).

The available stations are represented by yellow and red dots on the map.

Hover mouse over dot to see the name of the station.

Then click to see weather observations and forecasts.

To change the map : click on the green buttons with a black cross to zoom in, on the green button with a dash to zoom out, or on the green arrows for adjacent maps.


METAR-TAF: